Stuart, FL

11:45 PM EDT on May 24, 2015 (GMT -0400)
Vero Beach Municipal | | Change Station
CLOSE
Current Station
Airport
Location: Vero Beach,
Elevation: 23 ft
Nearby Weather Stations

Elev 23 ft 27.66 °N, 80.42 °W | Updated 52 minutes ago

Clear
Clear
80 °F
Feels Like 83 °F
N
15
Wind Variable Wind from East
Gusts 21 mph

Today
High -- | Low -- °F
--% Chance of Precip.
Yesterday
High -- | Low -- °F
Precip. -- in
6:28 AM 8:07 PM
Waxing Crescent, 45% visible
Pressure 30.19 in
Visibility 10.0 miles
Clouds Clear
Heat Index 83 °F
Dew Point 68 °F
Humidity 67%
Rainfall 0.00 in
Snow Depth Not available.
UV 0 out of 12
Pollen 5.20 out of 12
Air Quality Not available.
Flu Activity Sporadic
METAR KVRB 250253Z AUTO 09013G18KT 10SM CLR 27/20 A3019 RMK AO2 SLP222 T02670200 53011

More Conditions Fewer Conditions

Pressure 30.19 in
Visibility 10.0 miles
Clouds Clear
Heat Index 83 °F
Dew Point 68 °F
Humidity 67%
Rainfall 0.00 in
Snow Depth Not available.
UV 0 out of 12
Pollen 5.20 out of 12
Air Quality Not available.
Flu Activity Sporadic
METAR KVRB 250253Z AUTO 09013G18KT 10SM CLR 27/20 A3019 RMK AO2 SLP222 T02670200 53011

More Conditions Fewer Conditions

Nowcast | as of 8:47 PM EDT on May 24, 2015

Isolated showers will move onshore from Atlantic through midnight across east central Florida and diminish in coverage as they move toward the interior. Slightly higher coverage is expected across Volusia County and the Treasure Coast. Rainfall amounts will be less than a quarter inch. Additional details...including graphics are available online at: http://www.Srh.NOAA.Gov/mlb/blog.Php

×

10-Day Weather Forecast

Almanac

Astronomy

May. 24, 2015 Rise Set
Actual Time
Civil Twilight
Nautical Twilight
Astronomical Twilight
Moon
Length of Visible Light
Length of Day
Tomorrow will be .
, % of the Moon is Illuminated

Today's Extremes

State Highs State Lows

Community

WunderPhotos

Upload Photos

1,823,945 photos uploaded!

WunderBlogs® & News

Nearby

Air Quality

  Air Quality AQ Index Pollutant
Not available.

Snow Depth

Station Depth Elevation

Earthquake Activity

City Distance Mag. Time & Date
Minimum magnitude displayed is 2.5.

Coastal Water Temperatures

Place Temperature

Stations

Nearby Weather Stations

Station Location Temp. Windchill Dew Point Humidity Wind Precip. Elev Updated Type